createdAt,value
2018-11-23T00:00:13.194Z,1.70
2018-11-23T00:02:42.387Z,1.70
2018-11-23T00:05:10.954Z,1.60
2018-11-23T00:07:39.683Z,1.60
2018-11-23T00:10:11.286Z,1.60
2018-11-23T00:12:39.529Z,1.60
2018-11-23T00:15:11.460Z,1.80
2018-11-23T00:17:40.040Z,1.90
2018-11-23T00:20:11.314Z,1.90
2018-11-23T00:22:40.107Z,1.90
2018-11-23T00:25:10.476Z,1.70
2018-11-23T00:27:39.419Z,1.80
2018-11-23T00:30:10.735Z,1.80
2018-11-23T00:32:39.252Z,1.70
2018-11-23T00:35:10.337Z,1.50
2018-11-23T00:37:38.738Z,1.40
2018-11-23T00:40:09.379Z,1.40
2018-11-23T00:42:37.815Z,1.60
2018-11-23T00:45:07.968Z,1.70
2018-11-23T00:47:36.603Z,1.70
2018-11-23T00:50:05.272Z,1.70
2018-11-23T00:52:33.663Z,1.60
2018-11-23T00:55:02.044Z,1.80
2018-11-23T00:57:30.439Z,1.80
2018-11-23T00:59:58.801Z,1.70
2018-11-23T01:02:27.241Z,1.50
2018-11-23T01:04:55.860Z,1.50
2018-11-23T01:07:24.278Z,1.40
2018-11-23T01:09:52.635Z,1.40
2018-11-23T01:12:21.041Z,1.40
2018-11-23T01:14:49.418Z,1.40
2018-11-23T01:17:17.840Z,1.40
2018-11-23T01:19:47.300Z,1.50
2018-11-23T01:22:15.688Z,1.50
2018-11-23T01:24:44.051Z,1.40
2018-11-23T01:27:12.440Z,1.40
2018-11-23T01:29:40.809Z,1.50
2018-11-23T01:32:09.207Z,1.50
2018-11-23T01:34:37.627Z,1.50
2018-11-23T01:37:06.196Z,1.60
2018-11-23T01:39:34.619Z,1.50
2018-11-23T01:42:03.012Z,1.50
2018-11-23T01:44:35.579Z,1.40
2018-11-23T01:47:03.979Z,1.40
2018-11-23T01:49:32.331Z,1.40
2018-11-23T01:52:00.719Z,1.40
2018-11-23T01:54:29.495Z,1.40
2018-11-23T01:56:57.886Z,1.60
2018-11-23T01:59:26.235Z,1.60
2018-11-23T02:01:54.601Z,1.70
2018-11-23T02:04:22.940Z,1.60
2018-11-23T02:06:51.285Z,1.60
2018-11-23T02:09:19.637Z,1.50
2018-11-23T02:11:47.971Z,1.50
2018-11-23T02:14:16.445Z,1.50
2018-11-23T02:16:44.806Z,1.50
2018-11-23T02:19:13.161Z,1.50
2018-11-23T02:21:41.503Z,1.40
2018-11-23T02:24:09.835Z,1.40
2018-11-23T02:26:38.228Z,1.40
2018-11-23T02:29:06.576Z,1.30
2018-11-23T02:31:37.410Z,1.30
2018-11-23T02:34:07.089Z,1.30
2018-11-23T02:36:35.468Z,1.30
2018-11-23T02:39:04.152Z,1.20
2018-11-23T02:41:32.519Z,1.20
2018-11-23T02:44:00.964Z,1.30
2018-11-23T02:46:29.340Z,1.20
2018-11-23T02:48:57.696Z,1.20
2018-11-23T02:51:26.051Z,1.20
2018-11-23T02:53:54.386Z,1.20
2018-11-23T02:56:22.796Z,1.20
2018-11-23T02:58:51.120Z,1.20
2018-11-23T03:01:19.459Z,1.10
2018-11-23T03:03:47.931Z,1.10
2018-11-23T03:06:16.320Z,1.10
2018-11-23T03:08:44.708Z,1.00
2018-11-23T03:11:13.073Z,1.00
2018-11-23T03:13:41.412Z,1.10
2018-11-23T03:16:09.761Z,1.00
2018-11-23T03:18:38.757Z,1.10
2018-11-23T03:21:07.122Z,0.90
2018-11-23T03:23:35.460Z,0.90
2018-11-23T03:26:03.858Z,1.00
2018-11-23T03:28:32.186Z,1.10
2018-11-23T03:31:00.535Z,1.10
2018-11-23T03:33:28.897Z,1.00
2018-11-23T03:35:57.259Z,1.10
2018-11-23T03:38:25.636Z,1.10
2018-11-23T03:40:54.030Z,1.10
2018-11-23T03:43:22.397Z,1.00
2018-11-23T03:45:50.776Z,1.00
2018-11-23T03:48:19.152Z,1.10
2018-11-23T03:50:47.495Z,1.00
2018-11-23T03:53:15.892Z,1.20
2018-11-23T03:55:44.299Z,1.20
2018-11-23T03:58:12.701Z,1.30
2018-11-23T04:00:41.161Z,1.40
2018-11-23T04:03:09.562Z,1.40
2018-11-23T04:05:37.960Z,1.50
2018-11-23T04:08:06.384Z,1.40
2018-11-23T04:10:34.967Z,1.40
2018-11-23T04:13:03.378Z,1.30
2018-11-23T04:15:31.852Z,1.30
2018-11-23T04:18:00.268Z,1.30
2018-11-23T04:20:28.964Z,1.30
2018-11-23T04:22:57.363Z,1.30
2018-11-23T04:25:25.764Z,1.40
2018-11-23T04:27:54.192Z,1.60
2018-11-23T04:30:22.570Z,1.60
2018-11-23T04:32:50.975Z,1.70
2018-11-23T04:35:19.926Z,1.70
2018-11-23T04:37:48.835Z,1.70
2018-11-23T04:40:18.323Z,1.80
2018-11-23T04:42:46.727Z,1.80
2018-11-23T04:45:15.340Z,1.80
2018-11-23T04:47:43.876Z,1.80
2018-11-23T04:50:14.186Z,1.80
2018-11-23T04:52:42.934Z,1.70
2018-11-23T04:55:11.588Z,1.70
2018-11-23T04:57:40.101Z,1.70
2018-11-23T05:00:13.863Z,1.70
2018-11-23T05:02:42.692Z,1.60
2018-11-23T05:05:11.656Z,1.60
2018-11-23T05:07:40.183Z,1.80
2018-11-23T05:10:10.583Z,1.90
2018-11-23T05:12:39.153Z,1.90
2018-11-23T05:15:08.552Z,1.80
2018-11-23T05:17:37.240Z,1.90
2018-11-23T05:20:06.492Z,1.70
2018-11-23T05:22:35.226Z,1.70
2018-11-23T05:25:03.627Z,1.80
2018-11-23T05:27:32.104Z,1.90
2018-11-23T05:30:00.507Z,1.90
2018-11-23T05:32:28.923Z,2.10
2018-11-23T05:34:57.327Z,1.90
2018-11-23T05:37:25.841Z,1.70
2018-11-23T05:39:54.257Z,1.60
2018-11-23T05:42:22.623Z,1.50
2018-11-23T05:44:51.191Z,1.60
2018-11-23T05:47:20.276Z,1.70
2018-11-23T05:49:48.692Z,1.80
2018-11-23T05:52:17.052Z,1.70
2018-11-23T05:54:45.419Z,1.60
2018-11-23T05:57:13.845Z,1.50
2018-11-23T05:59:42.255Z,1.40
2018-11-23T06:02:10.706Z,1.50
2018-11-23T06:04:39.106Z,1.50
2018-11-23T06:07:07.483Z,1.50
2018-11-23T06:09:36.203Z,1.40
2018-11-23T06:12:04.627Z,1.30
2018-11-23T06:14:32.998Z,1.40
2018-11-23T06:17:01.404Z,1.30
2018-11-23T06:19:29.747Z,1.40
2018-11-23T06:21:58.146Z,1.40
2018-11-23T06:24:31.977Z,1.30
2018-11-23T06:26:55.214Z,1.20
2018-11-23T06:29:23.685Z,1.30
2018-11-23T06:31:52.268Z,1.40
2018-11-23T06:34:20.612Z,1.30
2018-11-23T06:36:48.971Z,1.50
2018-11-23T06:39:17.870Z,1.40
2018-11-23T06:41:47.519Z,1.40
2018-11-23T06:44:16.511Z,1.30
2018-11-23T06:46:44.855Z,1.30
2018-11-23T06:49:13.326Z,1.30
2018-11-23T06:51:41.739Z,1.20
2018-11-23T06:54:14.403Z,1.20
2018-11-23T06:56:38.624Z,1.20
2018-11-23T06:59:07.039Z,1.30
2018-11-23T07:01:35.406Z,1.30
2018-11-23T07:04:03.803Z,1.40
2018-11-23T07:06:32.171Z,1.40
2018-11-23T07:09:00.561Z,1.30
2018-11-23T07:11:29.046Z,1.30
2018-11-23T07:14:03.757Z,1.30
2018-11-23T07:16:25.793Z,1.30
2018-11-23T07:18:54.194Z,1.30
2018-11-23T07:21:22.555Z,1.30
2018-11-23T07:23:50.975Z,1.30
2018-11-23T07:26:19.344Z,1.30
2018-11-23T07:28:47.703Z,1.20
2018-11-23T07:31:16.063Z,1.20
2018-11-23T07:33:44.611Z,1.20
2018-11-23T07:36:12.991Z,1.20
2018-11-23T07:38:41.479Z,1.20
2018-11-23T07:41:21.216Z,1.30
2018-11-23T07:43:49.623Z,1.30
2018-11-23T07:46:17.994Z,1.30
2018-11-23T07:48:46.354Z,1.30
2018-11-23T07:51:14.693Z,1.40
2018-11-23T07:53:43.095Z,1.40
2018-11-23T07:56:11.515Z,1.40
2018-11-23T07:58:39.907Z,1.40
2018-11-23T08:01:08.319Z,1.40
2018-11-23T08:03:36.757Z,1.50
2018-11-23T08:06:05.339Z,1.40
2018-11-23T08:08:33.724Z,1.40
2018-11-23T08:11:06.321Z,1.30
2018-11-23T08:13:35.027Z,1.40
2018-11-23T08:16:03.438Z,1.60
2018-11-23T08:18:32.025Z,1.70
2018-11-23T08:21:00.504Z,1.60
2018-11-23T08:23:28.989Z,1.70
2018-11-23T08:25:57.336Z,1.70
2018-11-23T08:28:25.725Z,1.80
2018-11-23T08:30:54.096Z,1.80
2018-11-23T08:33:22.512Z,1.90
2018-11-23T08:35:50.867Z,1.80
2018-11-23T08:38:19.284Z,1.70
2018-11-23T08:40:47.638Z,2.00
2018-11-23T08:43:16.134Z,2.10
2018-11-23T08:45:44.496Z,2.10
2018-11-23T08:48:13.387Z,2.10
2018-11-23T08:50:41.873Z,2.10
2018-11-23T08:53:10.252Z,2.00
2018-11-23T08:55:39.379Z,2.20
2018-11-23T08:58:07.827Z,2.20
2018-11-23T09:00:36.243Z,2.30
2018-11-23T09:03:04.703Z,2.30
2018-11-23T09:05:33.133Z,2.30
2018-11-23T09:08:01.591Z,2.40
2018-11-23T09:10:31.158Z,2.50
2018-11-23T09:13:01.382Z,2.50
2018-11-23T09:15:29.791Z,2.60
2018-11-23T09:17:58.440Z,2.60
2018-11-23T09:20:26.846Z,2.80
2018-11-23T09:22:55.291Z,2.90
2018-11-23T09:25:24.255Z,3.00
2018-11-23T09:27:52.842Z,3.00
2018-11-23T09:30:23.598Z,3.10
2018-11-23T09:32:52.781Z,3.10
2018-11-23T09:35:21.255Z,3.10
2018-11-23T09:37:50.039Z,2.90
2018-11-23T09:40:20.041Z,3.10
2018-11-23T09:42:48.790Z,3.10
2018-11-23T09:45:18.838Z,2.90
2018-11-23T09:47:48.271Z,3.10
2018-11-23T09:50:18.122Z,3.20
2018-11-23T09:52:47.727Z,3.40
2018-11-23T09:55:16.414Z,3.40
2018-11-23T09:57:44.897Z,3.40
2018-11-23T10:00:21.244Z,3.50
2018-11-23T10:02:50.753Z,3.50
2018-11-23T10:05:19.613Z,3.60
2018-11-23T10:07:49.544Z,3.60
2018-11-23T10:10:18.927Z,3.70
2018-11-23T10:12:47.313Z,3.60
2018-11-23T10:15:17.068Z,3.70
2018-11-23T10:17:45.540Z,3.80
2018-11-23T10:20:17.382Z,3.80
2018-11-23T10:22:46.141Z,3.90
2018-11-23T10:25:16.358Z,4.00
2018-11-23T10:27:45.072Z,3.80
2018-11-23T10:30:19.305Z,3.90
2018-11-23T10:32:48.774Z,3.90
2018-11-23T10:35:17.229Z,3.90
2018-11-23T10:37:46.774Z,3.90
2018-11-23T10:40:17.957Z,3.90
2018-11-23T10:42:46.380Z,4.00
2018-11-23T10:45:17.517Z,4.10
2018-11-23T10:47:46.620Z,4.10
2018-11-23T10:50:16.763Z,4.20
2018-11-23T10:52:45.332Z,4.30
2018-11-23T10:55:16.183Z,4.40
2018-11-23T10:57:44.636Z,4.50
2018-11-23T11:00:19.468Z,4.60
2018-11-23T11:02:53.264Z,4.60
2018-11-23T11:05:27.081Z,4.60
2018-11-23T11:07:57.017Z,4.60
2018-11-23T11:10:25.476Z,4.50
2018-11-23T11:12:53.875Z,4.70
2018-11-23T11:15:22.470Z,4.80
2018-11-23T11:17:50.857Z,4.70
2018-11-23T11:20:19.741Z,4.70
2018-11-23T11:22:48.267Z,4.70
2018-11-23T11:25:16.672Z,4.90
2018-11-23T11:27:45.052Z,5.00
2018-11-23T11:30:15.499Z,5.10
2018-11-23T11:32:44.267Z,5.10
2018-11-23T11:35:13.185Z,5.30
2018-11-23T11:37:42.108Z,5.30
2018-11-23T11:40:12.623Z,5.30
2018-11-23T11:42:41.599Z,5.40
2018-11-23T11:45:12.061Z,5.50
2018-11-23T11:47:40.801Z,5.70
2018-11-23T11:50:10.407Z,5.70
2018-11-23T11:52:39.919Z,5.70
2018-11-23T11:55:10.181Z,5.80
2018-11-23T11:57:39.150Z,5.90
2018-11-23T12:00:10.453Z,5.90
2018-11-23T12:02:38.817Z,5.90
2018-11-23T12:05:08.486Z,6.00
2018-11-23T12:07:36.972Z,6.00
2018-11-23T12:10:07.478Z,6.20
2018-11-23T12:12:35.959Z,6.20
2018-11-23T12:15:04.840Z,6.20
2018-11-23T12:17:33.219Z,6.20
2018-11-23T12:20:01.696Z,6.30
2018-11-23T12:22:30.100Z,6.30
2018-11-23T12:24:59.435Z,6.40
2018-11-23T12:27:29.495Z,6.40
2018-11-23T12:29:56.379Z,6.60
2018-11-23T12:32:24.770Z,6.50
2018-11-23T12:34:53.431Z,6.50
2018-11-23T12:37:22.261Z,6.60
2018-11-23T12:39:50.911Z,6.70
2018-11-23T12:42:19.293Z,6.80
2018-11-23T12:44:47.707Z,6.80
2018-11-23T12:47:16.117Z,6.90
2018-11-23T12:49:44.594Z,7.00
2018-11-23T12:52:12.971Z,7.00
2018-11-23T12:54:41.463Z,7.10
2018-11-23T12:57:09.867Z,7.10
2018-11-23T12:59:38.288Z,7.10
2018-11-23T13:02:06.784Z,7.00
2018-11-23T13:04:35.227Z,7.00
2018-11-23T13:07:03.628Z,7.20
2018-11-23T13:09:32.064Z,8.40
2018-11-23T13:12:00.443Z,9.30
2018-11-23T13:14:28.880Z,9.40
2018-11-23T13:16:57.339Z,9.50
2018-11-23T13:19:25.807Z,9.70
2018-11-23T13:21:54.245Z,10.20
2018-11-23T13:24:22.707Z,10.40
2018-11-23T13:26:51.185Z,10.30
2018-11-23T13:29:19.668Z,10.30
2018-11-23T13:31:48.120Z,10.30
2018-11-23T13:34:16.607Z,10.40
2018-11-23T13:36:45.069Z,10.50
2018-11-23T13:39:13.535Z,11.00
2018-11-23T13:41:42.014Z,11.10
2018-11-23T13:44:10.493Z,11.40
2018-11-23T13:46:38.960Z,11.50
2018-11-23T13:49:07.411Z,11.60
2018-11-23T13:51:35.899Z,11.20
2018-11-23T13:54:04.445Z,10.30
2018-11-23T13:56:32.985Z,9.80
2018-11-23T13:59:01.437Z,9.80
2018-11-23T14:01:29.852Z,9.70
2018-11-23T14:03:58.320Z,9.30
2018-11-23T14:06:26.796Z,9.40
2018-11-23T14:08:55.254Z,9.40
2018-11-23T14:11:23.717Z,9.20
2018-11-23T14:13:52.164Z,9.30
2018-11-23T14:16:20.675Z,9.60
2018-11-23T14:18:49.079Z,9.30
2018-11-23T14:21:17.568Z,9.00
2018-11-23T14:23:46.027Z,8.90
2018-11-23T14:26:14.629Z,8.70
2018-11-23T14:28:43.258Z,8.30
2018-11-23T14:31:11.874Z,8.00
2018-11-23T14:33:40.286Z,7.70
2018-11-23T14:36:08.796Z,7.40
2018-11-23T14:38:37.199Z,7.20
2018-11-23T14:41:05.698Z,7.00
2018-11-23T14:43:34.122Z,6.80
2018-11-23T14:46:02.525Z,6.80
2018-11-23T14:48:30.955Z,6.70
2018-11-23T14:51:00.068Z,6.60
2018-11-23T14:53:28.472Z,6.50
2018-11-23T14:55:56.929Z,6.50
2018-11-23T14:58:25.340Z,6.50
2018-11-23T15:00:53.808Z,6.40
2018-11-23T15:03:22.189Z,6.40
2018-11-23T15:05:50.588Z,6.30
2018-11-23T15:08:18.983Z,6.30
2018-11-23T15:10:47.479Z,6.30
2018-11-23T15:13:17.337Z,6.20
2018-11-23T15:15:45.778Z,6.20
2018-11-23T15:18:14.144Z,6.10
2018-11-23T15:20:44.432Z,6.10
2018-11-23T15:23:16.357Z,6.00
2018-11-23T15:25:45.000Z,6.00
2018-11-23T15:28:13.995Z,6.10
2018-11-23T15:30:43.332Z,6.00
2018-11-23T15:33:13.432Z,6.00
2018-11-23T15:35:42.860Z,5.90
2018-11-23T15:38:13.265Z,5.90
2018-11-23T15:40:42.601Z,5.80
2018-11-23T15:43:12.360Z,5.90
2018-11-23T15:45:40.758Z,6.00
2018-11-23T15:48:09.856Z,6.00
2018-11-23T15:50:39.660Z,6.00
2018-11-23T15:53:09.582Z,6.00
2018-11-23T15:55:39.048Z,6.00
2018-11-23T15:58:09.209Z,6.00
2018-11-23T16:00:38.895Z,6.00
2018-11-23T16:03:08.794Z,6.00
2018-11-23T16:05:37.419Z,6.00
2018-11-23T16:08:07.723Z,6.10
2018-11-23T16:10:37.163Z,5.90
2018-11-23T16:13:11.361Z,5.90
2018-11-23T16:15:35.729Z,5.80
2018-11-23T16:18:04.591Z,5.80
2018-11-23T16:20:35.373Z,5.80
2018-11-23T16:23:05.741Z,5.90
2018-11-23T16:25:34.679Z,6.10
2018-11-23T16:28:04.451Z,6.10
2018-11-23T16:30:34.295Z,6.20
2018-11-23T16:33:04.187Z,6.20
2018-11-23T16:35:35.162Z,6.20
2018-11-23T16:38:05.388Z,6.10
2018-11-23T16:40:35.069Z,6.10
2018-11-23T16:43:03.934Z,6.00
2018-11-23T16:45:33.568Z,5.90
2018-11-23T16:48:03.252Z,5.90
2018-11-23T16:50:32.025Z,6.00
2018-11-23T16:53:00.738Z,6.00
2018-11-23T16:55:29.346Z,5.80
2018-11-23T16:57:59.264Z,5.70
2018-11-23T17:00:28.979Z,5.70
2018-11-23T17:02:58.644Z,5.50
2018-11-23T17:05:28.692Z,5.40
2018-11-23T17:07:57.081Z,5.40
2018-11-23T17:10:25.526Z,5.30
2018-11-23T17:12:53.959Z,5.30
2018-11-23T17:15:23.851Z,5.30
2018-11-23T17:17:52.287Z,5.30
2018-11-23T17:20:22.067Z,5.20
2018-11-23T17:22:51.404Z,5.20
2018-11-23T17:25:21.147Z,5.20
2018-11-23T17:27:49.764Z,5.10
2018-11-23T17:30:21.275Z,5.10
2018-11-23T17:32:49.694Z,5.10
2018-11-23T17:35:18.133Z,5.00
2018-11-23T17:37:46.582Z,5.00
2018-11-23T17:40:16.741Z,5.00
2018-11-23T17:42:45.195Z,5.00
2018-11-23T17:45:16.388Z,4.90
2018-11-23T17:47:44.819Z,5.00
2018-11-23T17:50:15.260Z,4.90
2018-11-23T17:52:43.998Z,4.90
2018-11-23T17:55:13.069Z,4.90
2018-11-23T17:57:42.160Z,4.90
2018-11-23T18:00:14.204Z,4.90
2018-11-23T18:02:43.152Z,4.80
2018-11-23T18:05:18.976Z,4.80
2018-11-23T18:07:47.927Z,4.90
2018-11-23T18:10:18.910Z,4.90
2018-11-23T18:12:47.827Z,4.80
2018-11-23T18:15:18.707Z,4.90
2018-11-23T18:17:47.773Z,4.80
2018-11-23T18:20:17.412Z,4.80
2018-11-23T18:22:46.421Z,4.80
2018-11-23T18:25:46.652Z,4.80
2018-11-23T18:28:15.127Z,4.80
2018-11-23T18:30:43.662Z,4.90
2018-11-23T18:33:12.187Z,4.80
2018-11-23T18:35:40.682Z,4.80
2018-11-23T18:38:09.172Z,4.80
2018-11-23T18:40:37.894Z,4.70
2018-11-23T18:43:06.505Z,4.70
2018-11-23T18:45:35.147Z,4.60
2018-11-23T18:48:03.661Z,4.70
2018-11-23T18:50:32.125Z,4.70
2018-11-23T18:53:00.667Z,4.60
2018-11-23T18:55:29.184Z,4.60
2018-11-23T18:57:58.764Z,4.50
2018-11-23T19:00:27.245Z,4.50
2018-11-23T19:02:55.836Z,4.60
2018-11-23T19:05:26.437Z,4.60
2018-11-23T19:07:54.961Z,4.50
2018-11-23T19:10:23.613Z,4.60
2018-11-23T19:12:52.118Z,4.60
2018-11-23T19:15:25.571Z,4.60
2018-11-23T19:17:49.177Z,4.60
2018-11-23T19:20:22.468Z,4.60
2018-11-23T19:22:54.034Z,4.80
2018-11-23T19:25:22.500Z,4.60
2018-11-23T19:27:51.139Z,4.60
2018-11-23T19:30:28.663Z,4.60
2018-11-23T19:32:52.576Z,4.50
2018-11-23T19:35:21.102Z,4.50
2018-11-23T19:37:49.918Z,4.50
2018-11-23T19:40:18.400Z,4.50
2018-11-23T19:42:46.912Z,4.50
2018-11-23T19:45:17.792Z,4.40
2018-11-23T19:50:26.041Z,4.30
2018-11-23T19:52:54.782Z,4.00
2018-11-23T19:55:23.314Z,3.80
2018-11-23T19:57:51.895Z,3.90
2018-11-23T20:00:26.892Z,3.90
2018-11-23T20:02:55.452Z,3.90
2018-11-23T20:05:24.073Z,3.90
2018-11-23T20:07:55.275Z,3.90
2018-11-23T20:10:24.561Z,4.00
2018-11-23T20:12:55.085Z,4.00
2018-11-23T20:15:23.938Z,3.90
2018-11-23T20:17:52.478Z,4.10
2018-11-23T20:20:21.078Z,4.10
2018-11-23T20:22:50.511Z,4.20
2018-11-23T20:25:20.029Z,4.00
2018-11-23T20:27:51.314Z,4.00
2018-11-23T20:30:20.313Z,3.90
2018-11-23T20:32:49.035Z,3.80
2018-11-23T20:35:18.841Z,3.70
2018-11-23T20:37:47.350Z,3.70
2018-11-23T20:40:17.880Z,3.60
2018-11-23T20:42:46.433Z,3.60
2018-11-23T20:45:21.595Z,3.60
2018-11-23T20:47:50.104Z,3.60
2018-11-23T20:50:18.838Z,3.60
2018-11-23T20:52:47.301Z,3.70
2018-11-23T20:55:22.672Z,3.90
2018-11-23T20:57:51.181Z,3.80
2018-11-23T21:00:20.505Z,3.80
2018-11-23T21:02:52.133Z,3.90
2018-11-23T21:05:21.317Z,3.90
2018-11-23T21:07:50.346Z,3.90
2018-11-23T21:10:25.912Z,3.70
2018-11-23T21:12:55.085Z,3.80
2018-11-23T21:15:27.660Z,3.80
2018-11-23T21:17:57.055Z,3.90
2018-11-23T21:20:25.794Z,3.80
2018-11-23T21:22:54.380Z,3.60
2018-11-23T21:25:22.821Z,3.60
2018-11-23T21:27:51.310Z,3.60
2018-11-23T21:30:21.073Z,3.60
2018-11-23T21:32:49.911Z,3.40
2018-11-23T21:35:18.956Z,3.40
2018-11-23T21:37:47.386Z,3.40
2018-11-23T21:40:16.763Z,3.40
2018-11-23T21:42:45.587Z,3.40
2018-11-23T21:45:15.583Z,3.30
2018-11-23T21:47:44.116Z,3.40
2018-11-23T21:50:16.725Z,3.50
2018-11-23T21:52:45.435Z,3.50
2018-11-23T21:55:23.088Z,3.60
2018-11-23T21:57:52.260Z,3.50
2018-11-23T22:00:20.682Z,3.40
2018-11-23T22:02:49.132Z,3.40
2018-11-23T22:05:17.606Z,3.40
2018-11-23T22:07:46.515Z,3.30
2018-11-23T22:10:19.131Z,3.30
2018-11-23T22:12:48.399Z,3.30
2018-11-23T22:15:18.847Z,3.40
2018-11-23T22:17:48.790Z,3.50
2018-11-23T22:20:18.403Z,3.60
2018-11-23T22:22:46.821Z,3.50
2018-11-23T22:25:20.976Z,3.40
2018-11-23T22:27:50.591Z,3.40
2018-11-23T22:30:23.697Z,3.50
2018-11-23T22:32:52.238Z,3.40
2018-11-23T22:35:20.689Z,3.40
2018-11-23T22:37:49.257Z,3.40
2018-11-23T22:40:19.418Z,3.40
2018-11-23T22:42:50.203Z,3.60
2018-11-23T22:45:18.698Z,3.60
2018-11-23T22:47:47.173Z,3.60
2018-11-23T22:50:18.953Z,3.60
2018-11-23T22:52:47.905Z,3.60
2018-11-23T22:55:16.940Z,3.60
2018-11-23T22:57:45.405Z,3.60
2018-11-23T23:00:29.019Z,3.60
2018-11-23T23:02:57.614Z,3.60
2018-11-23T23:05:26.198Z,3.50
2018-11-23T23:07:54.783Z,3.50
2018-11-23T23:10:23.269Z,3.50
2018-11-23T23:12:51.782Z,3.60
2018-11-23T23:15:20.268Z,3.90
2018-11-23T23:17:48.760Z,3.90
2018-11-23T23:20:20.416Z,3.80
2018-11-23T23:22:48.847Z,3.80
2018-11-23T23:25:17.473Z,3.70
2018-11-23T23:27:46.225Z,3.70
2018-11-23T23:30:16.814Z,3.90
2018-11-23T23:32:46.192Z,3.90
2018-11-23T23:35:16.138Z,3.90
2018-11-23T23:37:44.592Z,3.80
2018-11-23T23:40:15.277Z,3.80
2018-11-23T23:42:43.803Z,3.90
2018-11-23T23:45:13.675Z,3.90
2018-11-23T23:47:42.148Z,3.90
2018-11-23T23:50:14.765Z,3.90
2018-11-23T23:52:43.215Z,3.90
2018-11-23T23:55:11.702Z,4.00
2018-11-23T23:57:41.230Z,4.00
